Teigen, Montana
Current Conditions -  °F | °C
As of 9:20 PM on Monday 22 Dec 2014 (Local Time) from KMVH Reporting Station
Few Clouds Few Clouds  
Wind Chill: 17°   Ceiling: Unl
Heat Index: 30°   Visibility: 10mi
Dew Point: 23°   Wind: 22mph
Humidity: 75%   Direction: 320°NW
Pressure: 30.03"   Gusts: 29mph
Location:  47.04°N, 108.6°W
Report Text: KMVH 230420Z AUTO 32019G25KT 10SM FEW075 M01/M05 A3003 RMK A01
Loading
Personal Weather Stations






























Interactive Weather Map New forecast layout! Learn more

10-Day Weather Forecast

Advertisements
Track Severe Weather on mobile